sensor_id;sensor_type;location;lat;lon;timestamp;pressure;altitude;pressure_sealevel;temperature;humidity
70304;BME280;57712;48.752;11.348;2023-05-11T00:00:08;97379.16;;;10.77;100.00
70304;BME280;57712;48.752;11.348;2023-05-11T00:02:38;97381.41;;;10.62;100.00
70304;BME280;57712;48.752;11.348;2023-05-11T00:05:05;97384.00;;;10.69;100.00
70304;BME280;57712;48.752;11.348;2023-05-11T00:07:32;97378.31;;;10.60;100.00
70304;BME280;57712;48.752;11.348;2023-05-11T00:09:59;97382.75;;;10.74;100.00
70304;BME280;57712;48.752;11.348;2023-05-11T00:12:26;97373.41;;;10.71;100.00
70304;BME280;57712;48.752;11.348;2023-05-11T00:14:53;97378.19;;;10.67;100.00
70304;BME280;57712;48.752;11.348;2023-05-11T00:17:19;97375.78;;;10.69;100.00
70304;BME280;57712;48.752;11.348;2023-05-11T00:19:46;97370.09;;;10.60;100.00
70304;BME280;57712;48.752;11.348;2023-05-11T00:22:13;97374.03;;;10.59;100.00
70304;BME280;57712;48.752;11.348;2023-05-11T00:24:40;97372.16;;;10.56;100.00
70304;BME280;57712;48.752;11.348;2023-05-11T00:27:06;97366.69;;;10.56;100.00
70304;BME280;57712;48.752;11.348;2023-05-11T00:29:33;97367.03;;;10.58;100.00
70304;BME280;57712;48.752;11.348;2023-05-11T00:32:00;97373.97;;;10.62;100.00
70304;BME280;57712;48.752;11.348;2023-05-11T00:34:26;97359.66;;;10.55;100.00
70304;BME280;57712;48.752;11.348;2023-05-11T00:36:53;97373.56;;;10.64;100.00
70304;BME280;57712;48.752;11.348;2023-05-11T00:39:20;97361.06;;;10.63;100.00
70304;BME280;57712;48.752;11.348;2023-05-11T00:41:47;97372.94;;;10.56;100.00
70304;BME280;57712;48.752;11.348;2023-05-11T00:44:13;97360.44;;;10.55;100.00
70304;BME280;57712;48.752;11.348;2023-05-11T00:46:41;97363.50;;;10.57;100.00
70304;BME280;57712;48.752;11.348;2023-05-11T00:49:08;97363.66;;;10.50;100.00
70304;BME280;57712;48.752;11.348;2023-05-11T00:51:35;97354.66;;;10.50;100.00
70304;BME280;57712;48.752;11.348;2023-05-11T00:54:02;97360.13;;;10.50;100.00
70304;BME280;57712;48.752;11.348;2023-05-11T00:56:29;97356.56;;;10.53;100.00
70304;BME280;57712;48.752;11.348;2023-05-11T00:58:56;97363.00;;;10.62;100.00
70304;BME280;57712;48.752;11.348;2023-05-11T01:01:23;97357.75;;;10.52;100.00
70304;BME280;57712;48.752;11.348;2023-05-11T01:03:49;97357.41;;;10.50;100.00
70304;BME280;57712;48.752;11.348;2023-05-11T01:09:34;97361.31;;;10.49;100.00
70304;BME280;57712;48.752;11.348;2023-05-11T01:12:07;97353.63;;;10.44;100.00
70304;BME280;57712;48.752;11.348;2023-05-11T01:14:40;97357.56;;;10.43;100.00
70304;BME280;57712;48.752;11.348;2023-05-11T01:17:24;97355.00;;;10.52;100.00
70304;BME280;57712;48.752;11.348;2023-05-11T01:20:04;97354.81;;;10.43;100.00
70304;BME280;57712;48.752;11.348;2023-05-11T01:22:36;97355.50;;;10.47;100.00
70304;BME280;57712;48.752;11.348;2023-05-11T01:25:21;97350.50;;;10.41;100.00
70304;BME280;57712;48.752;11.348;2023-05-11T01:28:09;97352.97;;;10.36;100.00
70304;BME280;57712;48.752;11.348;2023-05-11T01:30:50;97351.34;;;10.38;100.00
70304;BME280;57712;48.752;11.348;2023-05-11T01:33:21;97355.59;;;10.43;100.00
70304;BME280;57712;48.752;11.348;2023-05-11T01:35:52;97356.69;;;10.46;100.00
70304;BME280;57712;48.752;11.348;2023-05-11T01:38:23;97352.56;;;10.37;100.00
70304;BME280;57712;48.752;11.348;2023-05-11T01:40:53;97349.91;;;10.34;100.00
70304;BME280;57712;48.752;11.348;2023-05-11T01:43:24;97352.22;;;10.35;100.00
70304;BME280;57712;48.752;11.348;2023-05-11T01:45:52;97355.41;;;10.30;100.00
70304;BME280;57712;48.752;11.348;2023-05-11T01:48:27;97353.06;;;10.32;100.00
70304;BME280;57712;48.752;11.348;2023-05-11T01:50:59;97350.09;;;10.23;100.00
70304;BME280;57712;48.752;11.348;2023-05-11T01:53:32;97359.22;;;10.36;100.00
70304;BME280;57712;48.752;11.348;2023-05-11T01:56:01;97350.09;;;10.23;100.00
70304;BME280;57712;48.752;11.348;2023-05-11T01:58:30;97355.41;;;10.30;100.00
70304;BME280;57712;48.752;11.348;2023-05-11T02:01:00;97353.59;;;10.24;100.00
70304;BME280;57712;48.752;11.348;2023-05-11T02:03:30;97352.00;;;10.26;100.00
70304;BME280;57712;48.752;11.348;2023-05-11T02:05:59;97363.88;;;10.16;100.00
70304;BME280;57712;48.752;11.348;2023-05-11T02:08:29;97359.59;;;10.15;100.00
70304;BME280;57712;48.752;11.348;2023-05-11T02:10:58;97351.66;;;10.21;100.00
70304;BME280;57712;48.752;11.348;2023-05-11T02:13:27;97362.94;;;10.26;100.00
70304;BME280;57712;48.752;11.348;2023-05-11T02:15:56;97360.72;;;10.18;100.00
70304;BME280;57712;48.752;11.348;2023-05-11T02:18:24;97362.03;;;10.09;100.00
70304;BME280;57712;48.752;11.348;2023-05-11T02:20:51;97355.78;;;10.09;100.00
70304;BME280;57712;48.752;11.348;2023-05-11T02:23:18;97359.69;;;10.11;100.00
70304;BME280;57712;48.752;11.348;2023-05-11T02:25:47;97355.66;;;10.16;100.00
70304;BME280;57712;48.752;11.348;2023-05-11T02:28:14;97360.56;;;10.05;100.00
70304;BME280;57712;48.752;11.348;2023-05-11T02:30:47;97352.59;;;10.14;100.00
70304;BME280;57712;48.752;11.348;2023-05-11T02:33:19;97363.66;;;10.07;100.00
70304;BME280;57712;48.752;11.348;2023-05-11T02:35:48;97355.09;;;10.05;100.00
70304;BME280;57712;48.752;11.348;2023-05-11T02:38:16;97355.09;;;10.05;100.00
70304;BME280;57712;48.752;11.348;2023-05-11T02:40:50;97347.97;;;10.11;100.00
70304;BME280;57712;48.752;11.348;2023-05-11T02:43:23;97347.22;;;10.07;100.00
70304;BME280;57712;48.752;11.348;2023-05-11T02:45:52;97344.84;;;10.09;100.00
70304;BME280;57712;48.752;11.348;2023-05-11T02:48:26;97347.22;;;10.07;100.00
70304;BME280;57712;48.752;11.348;2023-05-11T02:50:55;97340.97;;;10.06;100.00
70304;BME280;57712;48.752;11.348;2023-05-11T02:53:25;97339.88;;;10.04;100.00
70304;BME280;57712;48.752;11.348;2023-05-11T02:55:56;97340.97;;;10.06;100.00
70304;BME280;57712;48.752;11.348;2023-05-11T02:58:23;97337.78;;;10.11;100.00
70304;BME280;57712;48.752;11.348;2023-05-11T03:00:50;97341.22;;;10.16;100.00
70304;BME280;57712;48.752;11.348;2023-05-11T03:03:17;97347.72;;;10.02;100.00
70304;BME280;57712;48.752;11.348;2023-05-11T03:05:44;97342.41;;;10.15;100.00
70304;BME280;57712;48.752;11.348;2023-05-11T03:08:11;97340.72;;;10.21;100.00
70304;BME280;57712;48.752;11.348;2023-05-11T03:10:37;97340.69;;;10.24;100.00
70304;BME280;57712;48.752;11.348;2023-05-11T03:13:06;97336.00;;;10.21;100.00
70304;BME280;57712;48.752;11.348;2023-05-11T03:15:33;97330.19;;;10.19;100.00
70304;BME280;57712;48.752;11.348;2023-05-11T03:18:02;97342.16;;;10.29;100.00
70304;BME280;57712;48.752;11.348;2023-05-11T03:20:30;97330.69;;;10.14;100.00
70304;BME280;57712;48.752;11.348;2023-05-11T03:22:59;97330.53;;;10.21;100.00
70304;BME280;57712;48.752;11.348;2023-05-11T03:25:27;97327.34;;;10.26;100.00
70304;BME280;57712;48.752;11.348;2023-05-11T03:27:56;97327.44;;;10.23;100.00
70304;BME280;57712;48.752;11.348;2023-05-11T03:30:25;97331.00;;;10.39;100.00
70304;BME280;57712;48.752;11.348;2023-05-11T03:32:51;97324.97;;;10.28;100.00
70304;BME280;57712;48.752;11.348;2023-05-11T03:35:19;97322.44;;;10.37;100.00
70304;BME280;57712;48.752;11.348;2023-05-11T03:37:47;97326.84;;;10.31;100.00
70304;BME280;57712;48.752;11.348;2023-05-11T03:40:18;97317.66;;;10.41;100.00
70304;BME280;57712;48.752;11.348;2023-05-11T03:42:47;97321.03;;;10.29;100.00
70304;BME280;57712;48.752;11.348;2023-05-11T03:45:16;97315.41;;;10.36;100.00
70304;BME280;57712;48.752;11.348;2023-05-11T03:47:45;97310.25;;;10.19;100.00
70304;BME280;57712;48.752;11.348;2023-05-11T03:50:14;97311.28;;;10.28;100.00
70304;BME280;57712;48.752;11.348;2023-05-11T03:52:41;97307.63;;;10.35;100.00
70304;BME280;57712;48.752;11.348;2023-05-11T03:55:08;97311.41;;;10.41;100.00
70304;BME280;57712;48.752;11.348;2023-05-11T03:57:35;97309.38;;;10.25;100.00
70304;BME280;57712;48.752;11.348;2023-05-11T04:00:02;97306.34;;;10.39;100.00
70304;BME280;57712;48.752;11.348;2023-05-11T04:02:29;97306.50;;;10.32;100.00
70304;BME280;57712;48.752;11.348;2023-05-11T04:04:56;97310.06;;;10.49;100.00
70304;BME280;57712;48.752;11.348;2023-05-11T04:07:23;97314.44;;;10.47;100.00
70304;BME280;57712;48.752;11.348;2023-05-11T04:09:51;97309.16;;;10.36;100.00
70304;BME280;57712;48.752;11.348;2023-05-11T04:12:19;97298.13;;;10.39;100.00
70304;BME280;57712;48.752;11.348;2023-05-11T04:14:46;97302.06;;;10.38;100.00
70304;BME280;57712;48.752;11.348;2023-05-11T04:17:13;97303.34;;;10.54;100.00
70304;BME280;57712;48.752;11.348;2023-05-11T04:19:39;97302.69;;;10.46;100.00
70304;BME280;57712;48.752;11.348;2023-05-11T04:22:06;97301.94;;;10.46;100.00
70304;BME280;57712;48.752;11.348;2023-05-11T04:24:33;97307.31;;;10.49;100.00
70304;BME280;57712;48.752;11.348;2023-05-11T04:27:00;97311.38;;;10.61;100.00
70304;BME280;57712;48.752;11.348;2023-05-11T04:29:27;97312.75;;;10.53;100.00
70304;BME280;57712;48.752;11.348;2023-05-11T04:31:53;97312.25;;;10.58;100.00
70304;BME280;57712;48.752;11.348;2023-05-11T04:34:20;97307.22;;;10.73;100.00
70304;BME280;57712;48.752;11.348;2023-05-11T04:36:48;97309.16;;;10.92;100.00
70304;BME280;57712;48.752;11.348;2023-05-11T04:39:15;97299.00;;;10.73;100.00
70304;BME280;57712;48.752;11.348;2023-05-11T04:41:42;97312.06;;;10.85;100.00
70304;BME280;57712;48.752;11.348;2023-05-11T04:44:09;97311.97;;;10.88;100.00
70304;BME280;57712;48.752;11.348;2023-05-11T04:46:36;97313.84;;;10.75;100.00
70304;BME280;57712;48.752;11.348;2023-05-11T04:49:06;97311.44;;;10.77;100.00
70304;BME280;57712;48.752;11.348;2023-05-11T04:51:33;97310.00;;;10.89;100.00
70304;BME280;57712;48.752;11.348;2023-05-11T04:54:00;97306.81;;;10.74;100.00
70304;BME280;57712;48.752;11.348;2023-05-11T04:56:29;97311.25;;;10.68;100.00
70304;BME280;57712;48.752;11.348;2023-05-11T04:58:56;97302.13;;;10.75;100.00
70304;BME280;57712;48.752;11.348;2023-05-11T05:01:23;97303.13;;;10.81;100.00
70304;BME280;57712;48.752;11.348;2023-05-11T05:03:49;97302.88;;;10.75;100.00
70304;BME280;57712;48.752;11.348;2023-05-11T05:06:16;97314.91;;;10.61;100.00
70304;BME280;57712;48.752;11.348;2023-05-11T05:08:43;97313.22;;;10.48;100.00
70304;BME280;57712;48.752;11.348;2023-05-11T05:11:09;97306.28;;;10.63;100.00
70304;BME280;57712;48.752;11.348;2023-05-11T05:13:36;97307.44;;;10.62;100.00
70304;BME280;57712;48.752;11.348;2023-05-11T05:16:03;97317.28;;;10.59;100.00
70304;BME280;57712;48.752;11.348;2023-05-11T05:18:30;97310.69;;;10.57;100.00
70304;BME280;57712;48.752;11.348;2023-05-11T05:20:57;97319.00;;;10.53;100.00
70304;BME280;57712;48.752;11.348;2023-05-11T05:23:24;97322.72;;;10.63;100.00
70304;BME280;57712;48.752;11.348;2023-05-11T05:25:51;97311.91;;;10.56;100.00
70304;BME280;57712;48.752;11.348;2023-05-11T05:28:18;97314.13;;;10.61;100.00
70304;BME280;57712;48.752;11.348;2023-05-11T05:30:44;97321.16;;;10.62;100.00
70304;BME280;57712;48.752;11.348;2023-05-11T05:33:11;97317.94;;;10.67;100.00
70304;BME280;57712;48.752;11.348;2023-05-11T05:35:38;97327.97;;;10.74;100.00
70304;BME280;57712;48.752;11.348;2023-05-11T05:38:05;97327.16;;;10.73;100.00
70304;BME280;57712;48.752;11.348;2023-05-11T05:40:31;97325.91;;;10.78;100.00
70304;BME280;57712;48.752;11.348;2023-05-11T05:43:02;97326.47;;;10.69;100.00
70304;BME280;57712;48.752;11.348;2023-05-11T05:45:29;97328.75;;;10.74;100.00
70304;BME280;57712;48.752;11.348;2023-05-11T05:47:55;97333.56;;;10.86;100.00
70304;BME280;57712;48.752;11.348;2023-05-11T05:50:22;97335.69;;;10.79;100.00
70304;BME280;57712;48.752;11.348;2023-05-11T05:52:49;97337.69;;;10.94;100.00
70304;BME280;57712;48.752;11.348;2023-05-11T05:55:15;97329.97;;;10.89;100.00
70304;BME280;57712;48.752;11.348;2023-05-11T05:57:42;97330.06;;;10.86;100.00
70304;BME280;57712;48.752;11.348;2023-05-11T06:00:09;97332.03;;;10.85;100.00
70304;BME280;57712;48.752;11.348;2023-05-11T06:02:36;97338.19;;;10.89;100.00
70304;BME280;57712;48.752;11.348;2023-05-11T06:05:03;97340.69;;;11.00;100.00
70304;BME280;57712;48.752;11.348;2023-05-11T06:07:30;97336.06;;;10.97;100.00
70304;BME280;57712;48.752;11.348;2023-05-11T06:09:56;97329.81;;;10.96;100.00
70304;BME280;57712;48.752;11.348;2023-05-11T06:12:23;97327.94;;;11.10;100.00
70304;BME280;57712;48.752;11.348;2023-05-11T06:14:50;97337.38;;;11.09;100.00
70304;BME280;57712;48.752;11.348;2023-05-11T06:17:17;97332.81;;;11.02;100.00
70304;BME280;57712;48.752;11.348;2023-05-11T06:19:43;97330.16;;;11.15;100.00
70304;BME280;57712;48.752;11.348;2023-05-11T06:22:10;97330.34;;;11.08;100.00
70304;BME280;57712;48.752;11.348;2023-05-11T06:24:37;97331.34;;;10.97;100.00
70304;BME280;57712;48.752;11.348;2023-05-11T06:27:04;97327.97;;;11.26;100.00
70304;BME280;57712;48.752;11.348;2023-05-11T06:29:30;97326.13;;;11.03;100.00
70304;BME280;57712;48.752;11.348;2023-05-11T06:31:57;97327.09;;;11.13;100.00
70304;BME280;57712;48.752;11.348;2023-05-11T06:34:24;97335.50;;;11.22;100.00
70304;BME280;57712;48.752;11.348;2023-05-11T06:36:51;97330.09;;;11.18;100.00
70304;BME280;57712;48.752;11.348;2023-05-11T06:39:18;97327.03;;;11.16;100.00
70304;BME280;57712;48.752;11.348;2023-05-11T06:41:44;97334.28;;;11.23;100.00
70304;BME280;57712;48.752;11.348;2023-05-11T06:44:11;97323.31;;;11.07;100.00
70304;BME280;57712;48.752;11.348;2023-05-11T06:46:38;97321.44;;;11.20;100.00
70304;BME280;57712;48.752;11.348;2023-05-11T06:49:06;97324.78;;;11.11;100.00
70304;BME280;57712;48.752;11.348;2023-05-11T06:51:34;97327.63;;;11.24;100.00
70304;BME280;57712;48.752;11.348;2023-05-11T06:54:00;97327.88;;;11.46;100.00
70304;BME280;57712;48.752;11.348;2023-05-11T06:56:27;97326.00;;;11.26;100.00
70304;BME280;57712;48.752;11.348;2023-05-11T06:58:55;97332.06;;;11.34;100.00
70304;BME280;57712;48.752;11.348;2023-05-11T07:01:21;97327.81;;;11.49;100.00
70304;BME280;57712;48.752;11.348;2023-05-11T07:03:48;97322.50;;;11.42;100.00
70304;BME280;57712;48.752;11.348;2023-05-11T07:06:18;97327.97;;;11.42;100.00
70304;BME280;57712;48.752;11.348;2023-05-11T07:08:45;97328.31;;;11.61;100.00
70304;BME280;57712;48.752;11.348;2023-05-11T07:11:11;97318.28;;;11.21;100.00
70304;BME280;57712;48.752;11.348;2023-05-11T07:13:38;97323.34;;;11.39;100.00
70304;BME280;57712;48.752;11.348;2023-05-11T07:16:05;97320.34;;;11.34;100.00
70304;BME280;57712;48.752;11.348;2023-05-11T07:18:32;97316.47;;;11.31;100.00
70304;BME280;57712;48.752;11.348;2023-05-11T07:20:59;97319.16;;;11.51;100.00
70304;BME280;57712;48.752;11.348;2023-05-11T07:23:25;97317.19;;;11.51;100.00
70304;BME280;57712;48.752;11.348;2023-05-11T07:25:52;97326.34;;;11.61;100.00
70304;BME280;57712;48.752;11.348;2023-05-11T07:28:21;97319.22;;;11.64;100.00
70304;BME280;57712;48.752;11.348;2023-05-11T07:30:47;97308.53;;;11.37;100.00
70304;BME280;57712;48.752;11.348;2023-05-11T07:33:14;97315.53;;;11.54;100.00
70304;BME280;57712;48.752;11.348;2023-05-11T07:35:41;97315.63;;;11.50;100.00
70304;BME280;57712;48.752;11.348;2023-05-11T07:38:07;97313.91;;;11.56;100.00
70304;BME280;57712;48.752;11.348;2023-05-11T07:40:37;97323.16;;;11.63;100.00
70304;BME280;57712;48.752;11.348;2023-05-11T07:43:03;97309.53;;;11.43;100.00
70304;BME280;57712;48.752;11.348;2023-05-11T07:45:30;97311.50;;;11.42;100.00
70304;BME280;57712;48.752;11.348;2023-05-11T07:47:57;97316.63;;;11.56;100.00
70304;BME280;57712;48.752;11.348;2023-05-11T07:50:23;97310.31;;;11.60;100.00
70304;BME280;57712;48.752;11.348;2023-05-11T07:52:50;97306.44;;;11.73;100.00
70304;BME280;57712;48.752;11.348;2023-05-11T07:55:17;97318.38;;;11.83;100.00
70304;BME280;57712;48.752;11.348;2023-05-11T07:57:46;97307.25;;;11.57;100.00
70304;BME280;57712;48.752;11.348;2023-05-11T08:00:13;97300.34;;;11.66;100.00
70304;BME280;57712;48.752;11.348;2023-05-11T08:02:39;97305.00;;;11.69;100.00
70304;BME280;57712;48.752;11.348;2023-05-11T08:05:07;97302.16;;;11.72;100.00
70304;BME280;57712;48.752;11.348;2023-05-11T08:07:33;97315.13;;;11.88;100.00
70304;BME280;57712;48.752;11.348;2023-05-11T08:10:00;97311.25;;;11.85;100.00
70304;BME280;57712;48.752;11.348;2023-05-11T08:12:27;97311.81;;;11.77;100.00
70304;BME280;57712;48.752;11.348;2023-05-11T08:14:55;97309.44;;;11.79;100.00
70304;BME280;57712;48.752;11.348;2023-05-11T08:17:22;97309.50;;;11.75;100.00
70304;BME280;57712;48.752;11.348;2023-05-11T08:19:48;97312.19;;;11.79;100.00
70304;BME280;57712;48.752;11.348;2023-05-11T08:22:16;97309.94;;;11.74;100.00
70304;BME280;57712;48.752;11.348;2023-05-11T08:24:43;97303.09;;;11.66;100.00
70304;BME280;57712;48.752;11.348;2023-05-11T08:27:10;97315.97;;;11.85;100.00
70304;BME280;57712;48.752;11.348;2023-05-11T08:29:36;97320.22;;;12.02;100.00
70304;BME280;57712;48.752;11.348;2023-05-11T08:32:03;97317.81;;;12.04;100.00
70304;BME280;57712;48.752;11.348;2023-05-11T08:34:30;97316.38;;;12.00;100.00
70304;BME280;57712;48.752;11.348;2023-05-11T08:36:57;97320.41;;;11.95;100.00
70304;BME280;57712;48.752;11.348;2023-05-11T08:39:27;97312.63;;;11.61;100.00
70304;BME280;57712;48.752;11.348;2023-05-11T08:42:14;97318.00;;;11.65;100.00
70304;BME280;57712;48.752;11.348;2023-05-11T08:44:43;97315.31;;;11.48;100.00
70304;BME280;57712;48.752;11.348;2023-05-11T08:47:11;97314.94;;;11.63;100.00
70304;BME280;57712;48.752;11.348;2023-05-11T08:49:40;97323.34;;;11.55;100.00
70304;BME280;57712;48.752;11.348;2023-05-11T08:52:09;97320.78;;;11.48;100.00
70304;BME280;57712;48.752;11.348;2023-05-11T08:54:36;97317.94;;;11.36;100.00
70304;BME280;57712;48.752;11.348;2023-05-11T08:57:03;97320.78;;;11.48;100.00
70304;BME280;57712;48.752;11.348;2023-05-11T08:59:32;97330.53;;;11.66;100.00
70304;BME280;57712;48.752;11.348;2023-05-11T09:02:00;97341.59;;;11.78;100.00
70304;BME280;57712;48.752;11.348;2023-05-11T09:04:28;97331.00;;;11.80;100.00
70304;BME280;57712;48.752;11.348;2023-05-11T09:06:56;97337.56;;;11.99;100.00
70304;BME280;57712;48.752;11.348;2023-05-11T09:09:23;97335.00;;;11.92;100.00
70304;BME280;57712;48.752;11.348;2023-05-11T09:11:50;97326.78;;;11.60;100.00
70304;BME280;57712;48.752;11.348;2023-05-11T09:14:18;97318.50;;;11.76;100.00
70304;BME280;57712;48.752;11.348;2023-05-11T09:16:51;97317.69;;;11.79;100.00
70304;BME280;57712;48.752;11.348;2023-05-11T09:19:18;97317.88;;;11.39;100.00
70304;BME280;57712;48.752;11.348;2023-05-11T09:21:46;97325.75;;;11.70;100.00
70304;BME280;57712;48.752;11.348;2023-05-11T09:24:12;97329.75;;;11.65;100.00
70304;BME280;57712;48.752;11.348;2023-05-11T09:26:39;97334.56;;;11.94;100.00
70304;BME280;57712;48.752;11.348;2023-05-11T09:29:06;97330.94;;;11.97;100.00
70304;BME280;57712;48.752;11.348;2023-05-11T09:31:43;97324.72;;;11.64;100.00
70304;BME280;57712;48.752;11.348;2023-05-11T09:34:20;97325.03;;;11.66;100.00
70304;BME280;57712;48.752;11.348;2023-05-11T09:36:49;97315.38;;;11.45;100.00
70304;BME280;57712;48.752;11.348;2023-05-11T09:39:17;97323.16;;;11.79;100.00
70304;BME280;57712;48.752;11.348;2023-05-11T09:42:17;97311.31;;;11.66;100.00
70304;BME280;57712;48.752;11.348;2023-05-11T09:44:45;97312.56;;;11.48;100.00
70304;BME280;57712;48.752;11.348;2023-05-11T09:47:13;97317.31;;;11.77;100.00
70304;BME280;57712;48.752;11.348;2023-05-11T09:49:43;97331.59;;;11.88;100.00
70304;BME280;57712;48.752;11.348;2023-05-11T09:52:19;97325.31;;;11.88;100.00
70304;BME280;57712;48.752;11.348;2023-05-11T09:54:49;97322.16;;;11.89;100.00
70304;BME280;57712;48.752;11.348;2023-05-11T09:57:30;97319.25;;;11.80;100.00
70304;BME280;57712;48.752;11.348;2023-05-11T09:59:58;97313.13;;;11.56;100.00
70304;BME280;57712;48.752;11.348;2023-05-11T10:02:30;97315.13;;;11.88;100.00
70304;BME280;57712;48.752;11.348;2023-05-11T10:04:59;97319.31;;;11.93;100.00
70304;BME280;57712;48.752;11.348;2023-05-11T10:07:33;97319.00;;;12.20;100.00
70304;BME280;57712;48.752;11.348;2023-05-11T10:10:04;97318.78;;;12.27;100.00
70304;BME280;57712;48.752;11.348;2023-05-11T10:12:32;97321.66;;;12.36;100.00
70304;BME280;57712;48.752;11.348;2023-05-11T10:15:07;97320.13;;;12.06;100.00
70304;BME280;57712;48.752;11.348;2023-05-11T10:17:35;97311.56;;;12.04;100.00
70304;BME280;57712;48.752;11.348;2023-05-11T10:20:03;97307.41;;;11.83;100.00
70304;BME280;57712;48.752;11.348;2023-05-11T10:22:31;97306.00;;;11.91;100.00
70304;BME280;57712;48.752;11.348;2023-05-11T10:24:59;97306.88;;;11.72;100.00
70304;BME280;57712;48.752;11.348;2023-05-11T10:27:27;97309.50;;;11.75;100.00
70304;BME280;57712;48.752;11.348;2023-05-11T10:29:54;97301.22;;;11.63;100.00
70304;BME280;57712;48.752;11.348;2023-05-11T10:32:24;97300.34;;;11.66;100.00
70304;BME280;57712;48.752;11.348;2023-05-11T10:34:50;97303.56;;;11.48;100.00
70304;BME280;57712;48.752;11.348;2023-05-11T10:37:17;97303.97;;;11.63;100.00
70304;BME280;57712;48.752;11.348;2023-05-11T10:39:47;97307.97;;;11.74;100.00
70304;BME280;57712;48.752;11.348;2023-05-11T10:42:19;97309.44;;;11.79;100.00
70304;BME280;57712;48.752;11.348;2023-05-11T10:58:56;97299.69;;;11.62;100.00
70304;BME280;57712;48.752;11.348;2023-05-11T11:01:37;97306.69;;;11.79;100.00
70304;BME280;57712;48.752;11.348;2023-05-11T11:04:10;97314.53;;;11.80;100.00
70304;BME280;57712;48.752;11.348;2023-05-11T11:06:39;97311.34;;;11.82;100.00
70304;BME280;57712;48.752;11.348;2023-05-11T11:09:10;97299.81;;;11.87;100.00
70304;BME280;57712;48.752;11.348;2023-05-11T11:11:43;97302.25;;;11.69;100.00
70304;BME280;57712;48.752;11.348;2023-05-11T11:14:14;97299.31;;;11.76;100.00
70304;BME280;57712;48.752;11.348;2023-05-11T11:19:43;97314.56;;;12.09;100.00
70304;BME280;57712;48.752;11.348;2023-05-11T11:25:05;97310.22;;;12.25;100.00
70304;BME280;57712;48.752;11.348;2023-05-11T11:30:21;97297.53;;;12.14;100.00
70304;BME280;57712;48.752;11.348;2023-05-11T11:32:49;97299.88;;;12.29;100.00
70304;BME280;57712;48.752;11.348;2023-05-11T11:38:09;97303.84;;;11.99;100.00
70304;BME280;57712;48.752;11.348;2023-05-11T11:40:36;97302.00;;;12.08;100.00
70304;BME280;57712;48.752;11.348;2023-05-11T11:43:26;97308.19;;;12.12;100.00
70304;BME280;57712;48.752;11.348;2023-05-11T11:45:54;97310.88;;;12.29;100.00
70304;BME280;57712;48.752;11.348;2023-05-11T11:48:31;97301.94;;;12.12;100.00
70304;BME280;57712;48.752;11.348;2023-05-11T11:51:04;97305.59;;;12.22;100.00
70304;BME280;57712;48.752;11.348;2023-05-11T11:56:03;97308.06;;;12.45;100.00
70304;BME280;57712;48.752;11.348;2023-05-11T12:01:11;97299.56;;;12.27;100.00
70304;BME280;57712;48.752;11.348;2023-05-11T12:03:39;97309.63;;;12.59;100.00
70304;BME280;57712;48.752;11.348;2023-05-11T12:06:10;97299.16;;;12.41;100.00
70304;BME280;57712;48.752;11.348;2023-05-11T12:08:39;97288.81;;;12.32;100.00
70304;BME280;57712;48.752;11.348;2023-05-11T12:11:06;97301.78;;;12.32;100.00
70304;BME280;57712;48.752;11.348;2023-05-11T12:13:34;97296.22;;;12.19;100.00
70304;BME280;57712;48.752;11.348;2023-05-11T12:16:11;97302.25;;;12.43;100.00
70304;BME280;57712;48.752;11.348;2023-05-11T12:18:39;97306.06;;;12.33;100.00
70304;BME280;57712;48.752;11.348;2023-05-11T12:21:07;97295.06;;;12.33;100.00
70304;BME280;57712;48.752;11.348;2023-05-11T12:23:57;97302.09;;;12.34;100.00
70304;BME280;57712;48.752;11.348;2023-05-11T12:26:26;97302.56;;;12.45;100.00
70304;BME280;57712;48.752;11.348;2023-05-11T12:29:08;97302.38;;;12.52;100.00
70304;BME280;57712;48.752;11.348;2023-05-11T12:31:43;97302.44;;;12.36;100.00
70304;BME280;57712;48.752;11.348;2023-05-11T12:34:18;97295.81;;;12.21;100.00
70304;BME280;57712;48.752;11.348;2023-05-11T12:36:49;97289.63;;;12.17;100.00
70304;BME280;57712;48.752;11.348;2023-05-11T12:39:25;97290.34;;;12.33;100.00
70304;BME280;57712;48.752;11.348;2023-05-11T12:41:54;97293.72;;;12.25;100.00
70304;BME280;57712;48.752;11.348;2023-05-11T12:44:25;97288.38;;;12.05;100.00
70304;BME280;57712;48.752;11.348;2023-05-11T12:46:52;97289.38;;;12.40;100.00
70304;BME280;57712;48.752;11.348;2023-05-11T12:49:23;97289.97;;;12.19;100.00
70304;BME280;57712;48.752;11.348;2023-05-11T12:54:27;97274.53;;;12.08;100.00
70304;BME280;57712;48.752;11.348;2023-05-11T12:56:55;97290.50;;;12.13;100.00
70304;BME280;57712;48.752;11.348;2023-05-11T12:59:23;97281.31;;;12.20;100.00
70304;BME280;57712;48.752;11.348;2023-05-11T13:01:50;97278.56;;;12.20;100.00
70304;BME280;57712;48.752;11.348;2023-05-11T13:04:17;97286.03;;;12.20;100.00
70304;BME280;57712;48.752;11.348;2023-05-11T13:06:44;97283.97;;;12.36;100.00
70304;BME280;57712;48.752;11.348;2023-05-11T13:09:20;97275.38;;;12.22;100.00
70304;BME280;57712;48.752;11.348;2023-05-11T13:11:47;97276.94;;;12.35;100.00
70304;BME280;57712;48.752;11.348;2023-05-11T13:14:15;97278.28;;;12.43;100.00
70304;BME280;57712;48.752;11.348;2023-05-11T13:16:52;97277.72;;;12.36;100.00
70304;BME280;57712;48.752;11.348;2023-05-11T13:19:27;97281.00;;;12.31;100.00
70304;BME280;57712;48.752;11.348;2023-05-11T13:21:54;97280.34;;;12.39;100.00
70304;BME280;57712;48.752;11.348;2023-05-11T13:24:22;97272.53;;;12.25;100.00